Welcome to our Virtual Airline
Sign-in:

Flight MFC37841

  • Submitted By: Thomas Menzel
  • Departure Airport: Kodiak (PADQ)
  • Arrival Airport: Port Williams SPB (KPR)
  • Aircraft: DHC6 TWIN OT (N255MM)
  • Flight Time: 00.40.18
  • Date Submitted: 19/06/06
  • Route: STOP-OVER AT KITOI BAY SPB (KKB)
  • Status: Accepted
Flight Details
Gross Revenue:
(15 load / $ 48.00 per unit
$ 720.00
Fuel Cost:
(118.841 fuel used @ 5.1 / unit)
$ 606.09

Additional Log Information:

View Log

FS[17:52] ----- Flight Opened -----
FS[17:52] Cigar Box - 1.1.4.0
FS[17:52] FS: Prepar3D V4
FS[17:52] FSUIPC: v5.14
FS[17:52] Flight Number: MFC37841
FS[17:52] FS Aircraft: DHC-6 300 Amphib RTMM
FS[17:52] FS Model: DHC6
FS[17:52] FS Type: DeHavilland
FS[17:52] Departure: PADQ
FS[17:52] Arrival: KPR
FS[17:52] Flight Level: 4500
FS[17:52] Flight Type: H
FS[17:52] Passengers: 15
FS[17:52] FOB: 2591 lbs
FS[17:52] Gate: n/a
FS[17:52] NOTE: Parking Brake Ignored
FS[17:52] Crash Detection: Disabled
FS[17:52] Engines: 2 Turboprop
FS[17:52] NOTE: Boarding has started
FS[17:52] FS: Paused
FS[17:52] Parking Brake: Engaged
FS[17:52] Engine 1: Started
FS[17:52] Engine 2: Started
FS[17:52] Light Data: Navigation ON
FS[17:52] Light Data: Beacon ON
FS[17:52] Light Data: Landing lights ON
FS[17:52] Main Door Closed
FS[17:52] COM1: 121.90
FS[17:52] COM2: 127.80
FS[17:52] Transponder: 1200
FS[17:52] NAV1: 113.70
FS[17:52] NAV2: 110.60
FS[17:52] ADF1: 284.5
FS[17:52] ADF2: 240.0
FS[17:52] Navigation Mode: GPS
FS[17:52] Navigation Mode: GPS
FS[17:53] FS: Unpaused
FS[17:53] Parking Brake: Released
FS[17:53] Flaps: Position 1
FS[17:53] NOTE: Taxi started
FS[17:53] ADF1: 284.5
FS[17:54] ADF1: 284.0
FS[17:54] NOTE: ----- TAKE OFF -----
FS[17:54] GS: 99 knots
FS[17:54] TAS: 105 knots
FS[17:54] IAS: 107 knots
FS[17:54] VS: 10 fpm
FS[17:54] FOB: 2582 lbs
FS[17:54] Heading: 259°
FS[17:54] Pitch: 1°
FS[17:54] Bank: 0°
FS[17:54] Aircraft Weight: 11332.38 lbs
FS[17:54] Nearest Airport: PADQ
FS[17:54] Distance: 0.15 miles
FS[17:54] Runway: 25 - PADQ
FS[17:54] Ground Surface: Asphalt
FS[17:54] Ground Condition: Normal
FS[17:54] NOTE: Weather Report
FS[17:54] Wind Heading: 281°
FS[17:54] Wind Speed: 6 knots
FS[17:54] OAT: 3° C
FS[17:54] TAT: 4° C
FS[17:54] Precipitation: None
FS[17:54] Dew Point: 1° C
FS[17:54] Visibility: 23 miles
FS[17:54] METAR: PADQ 061553Z 28004KT 10SM CLR 14/08 A3002 RMK AO2 SLP165 T01440078 $
FS[17:54] NOTE: Climb started
FS[17:54] Landing Gear: Retracted
FS[17:54] GS: 101 knots
FS[17:54] TAS: 106 knots
FS[17:54] IAS: 108 knots
FS[17:54] VS: 589 fpm
FS[17:54] AGL: 29 ft
FS[17:54] AMSL: 101 ft
FS[17:54] View Mode: Virtual Cockpit
FS[17:54] Flaps: Position 0
FS[17:54] GS: 89 knots
FS[17:54] TAS: 96 knots
FS[17:54] IAS: 97 knots
FS[17:54] VS: 1274 fpm
FS[17:54] Light Data: Landing lights OFF
FS[17:54] AGL: 452 ft
FS[17:54] AMSL: 524 ft
FS[17:55] Light Data: Landing lights ON
FS[17:55] AGL: 548 ft
FS[17:55] AMSL: 626 ft
FS[17:55] ADF1: 284.5
FS[17:55] Flaps: Position 1
FS[17:55] GS: 99 knots
FS[17:55] TAS: 95 knots
FS[17:55] IAS: 95 knots
FS[17:55] VS: -619 fpm
FS[17:56] ADF1: 284.5
FS[17:56] Landing Gear: Extended
FS[17:56] GS: 87 knots
FS[17:56] TAS: 85 knots
FS[17:56] IAS: 86 knots
FS[17:56] VS: -83 fpm
FS[17:56] AGL: 436 ft
FS[17:56] AMSL: 436 ft
FS[17:56] ADF1: 284.0
FS[17:57] Flaps: Position 2
FS[17:57] GS: 87 knots
FS[17:57] TAS: 84 knots
FS[17:57] IAS: 85 knots
FS[17:57] VS: -62 fpm
FS[17:57] ADF1: 284.5
FS[17:57] Flaps: Position 3
FS[17:57] GS: 79 knots
FS[17:57] TAS: 79 knots
FS[17:57] IAS: 80 knots
FS[17:57] VS: -406 fpm
FS[17:57] Flaps: Position 4
FS[17:57] GS: 79 knots
FS[17:57] TAS: 78 knots
FS[17:57] IAS: 79 knots
FS[17:57] VS: -391 fpm
FS[17:58] NOTE: ----- LANDED -----
FS[17:58] Landing Rate: -210.69 fpm
FS[17:58] GS: 58 knots
FS[17:58] TAS: 58 knots
FS[17:58] IAS: 59 knots
FS[17:58] VS: -193 fpm
FS[17:58] FOB: 2560 lbs
FS[17:58] Heading: 19°
FS[17:58] Pitch: 8°
FS[17:58] Bank: -3°
FS[17:58] Aircraft Weight: 11310.65 lbs
FS[17:58] Nearest Airport: KDK
FS[17:58] Distance: 0.16 miles
FS[17:58] Runway: 2 - KDK
FS[17:58] Ground Surface: Grass Bumpy
FS[17:58] Ground Condition: Normal
FS[17:58] NOTE: Weather Report
FS[17:58] Wind Heading: 281°
FS[17:58] Wind Speed: 6 knots
FS[17:58] OAT: 2° C
FS[17:58] TAT: 3° C
FS[17:58] Precipitation: None
FS[17:58] Dew Point: 1° C
FS[17:58] Visibility: 23 miles
FS[17:58] METAR: KPRB 061616Z AUTO 30006KT 10SM SCT007 16/12 A2997 RMK AO2 T01610122KPRC 061553Z VRB05KT 10SM CLR 25/03 A3013 RMK AO2 SLP115 T02500028KPRN 061632Z AUTO 12008KT 10SM SCT009 BKN013 26/21 A2990 RMK AO2 T02610211KPRS 061635Z AUTO 00000KT 10SM CLR 28/13 A3000 RMK AO2 T02810130KPRX 061556Z AUTO 35003KT 10SM OVC025 25/22 A2978 RMK AO2 SLP092 T02500217 $
FS[17:58] View Mode: Virtual Cockpit
FS[17:58] ADF1: 284.0
FS[17:58] NOTE: Taxi started
FS[17:59] NOTE: Arrived
FS[17:59] Parking Brake: Engaged
FS[17:59] Flaps: Position 1
FS[17:59] Flaps: Position 0
FS[17:59] ADF1: 284.5
FS[17:59] Flaps: Position 1
FS[18:00] Parking Brake: Released
FS[18:00] ADF1: 284.0
FS[18:00] Landing Gear: Retracted
FS[18:00] GS: 93 knots
FS[18:00] TAS: 96 knots
FS[18:00] IAS: 98 knots
FS[18:00] VS: 1190 fpm
FS[18:00] AGL: 53 ft
FS[18:00] AMSL: 190 ft
FS[18:00] View Mode: Virtual Cockpit
FS[18:00] Flaps: Position 0
FS[18:00] GS: 75 knots
FS[18:00] TAS: 82 knots
FS[18:00] IAS: 83 knots
FS[18:00] VS: 1791 fpm
FS[18:00] Autopilot: Engaged
FS[18:00] AGL: 492 ft
FS[18:00] AMSL: 603 ft
FS[18:01] ADF1: 284.5
FS[18:01] Light Data: Landing lights OFF
FS[18:01] AGL: 1034 ft
FS[18:01] AMSL: 1230 ft
FS[18:01] ADF1: 284.0
FS[18:02] ADF1: 284.5
FS[18:03] ADF1: 284.0
FS[18:04] ADF1: 284.5
FS[18:05] ADF1: 284.0
FS[18:06] ADF1: 284.0
FS[18:06] ADF1: 284.5
FS[18:07] ADF1: 284.0
FS[18:08] ADF1: 284.5
FS[18:08] Light Data: Landing lights ON
FS[18:08] AGL: 2386 ft
FS[18:08] AMSL: 2490 ft
FS[18:08] Light Data: Landing lights OFF
FS[18:08] AGL: 2126 ft
FS[18:08] AMSL: 2329 ft
FS[18:08] Flaps: Position 1
FS[18:08] GS: 106 knots
FS[18:08] TAS: 106 knots
FS[18:08] IAS: 103 knots
FS[18:08] VS: -752 fpm
FS[18:09] Flaps: Position 2
FS[18:09] GS: 101 knots
FS[18:09] TAS: 99 knots
FS[18:09] IAS: 97 knots
FS[18:09] VS: -559 fpm
FS[18:09] ADF1: 284.0
FS[18:09] Autopilot: Disengaged
FS[18:09] AGL: 1499 ft
FS[18:09] AMSL: 1689 ft
FS[18:10] ADF1: 284.0
FS[18:10] Flaps: Position 4
FS[18:10] GS: 79 knots
FS[18:10] TAS: 83 knots
FS[18:10] IAS: 84 knots
FS[18:10] VS: -81 fpm
FS[18:11] NOTE: ----- LANDED -----
FS[18:11] Landing Rate: -166.86 fpm
FS[18:11] GS: 52 knots
FS[18:11] TAS: 58 knots
FS[18:11] IAS: 59 knots
FS[18:11] VS: -164 fpm
FS[18:11] FOB: 2455 lbs
FS[18:11] Heading: 240°
FS[18:11] Pitch: 5°
FS[18:11] Bank: -3°
FS[18:11] Aircraft Weight: 11205.76 lbs
FS[18:11] Nearest Airport: KKB
FS[18:11] Distance: 0.28 miles
FS[18:11] Runway: ???
FS[18:11] Ground Surface: Water
FS[18:11] Ground Condition: Normal
FS[18:11] NOTE: Weather Report
FS[18:11] Wind Heading: 209°
FS[18:11] Wind Speed: 8 knots
FS[18:11] OAT: 4° C
FS[18:11] TAT: 5° C
FS[18:11] Precipitation: None
FS[18:11] Dew Point: -1° C
FS[18:11] Visibility: 23 miles
FS[18:11] METAR: KPRB 061616Z AUTO 30006KT 10SM SCT007 16/12 A2997 RMK AO2 T01610122KPRC 061553Z VRB05KT 10SM CLR 25/03 A3013 RMK AO2 SLP115 T02500028KPRN 061632Z AUTO 12008KT 10SM SCT009 BKN013 26/21 A2990 RMK AO2 T02610211KPRS 061635Z AUTO 00000KT 10SM CLR 28/13 A3000 RMK AO2 T02810130KPRX 061556Z AUTO 35003KT 10SM OVC025 25/22 A2978 RMK AO2 SLP092 T02500217 $
FS[18:11] View Mode: Virtual Cockpit
FS[18:11] ADF1: 284.5
FS[18:11] Flaps: Position 0
FS[18:11] View Mode: Spot Plane
FS[18:11] Flaps: Position 3
FS[18:11] GS: 79 knots
FS[18:11] TAS: 83 knots
FS[18:11] IAS: 84 knots
FS[18:11] VS: -163 fpm
FS[18:11] Flaps: Position 4
FS[18:11] GS: 79 knots
FS[18:11] TAS: 82 knots
FS[18:11] IAS: 82 knots
FS[18:11] VS: -255 fpm
FS[18:11] ADF1: 284.0
FS[18:11] NOTE: ----- LANDED -----
FS[18:11] Landing Rate: -229.15 fpm
FS[18:11] GS: 50 knots
FS[18:11] TAS: 58 knots
FS[18:11] IAS: 58 knots
FS[18:11] VS: -154 fpm
FS[18:11] FOB: 2454 lbs
FS[18:11] Heading: 239°
FS[18:11] Pitch: 3°
FS[18:11] Bank: -3°
FS[18:11] Aircraft Weight: 11205.17 lbs
FS[18:11] Nearest Airport: KKB
FS[18:11] Distance: 0.27 miles
FS[18:11] Runway: ???
FS[18:11] Ground Surface: Water
FS[18:11] Ground Condition: Normal
FS[18:11] NOTE: Weather Report
FS[18:11] Wind Heading: 209°
FS[18:11] Wind Speed: 8 knots
FS[18:11] OAT: 4° C
FS[18:11] TAT: 5° C
FS[18:11] Precipitation: None
FS[18:11] Dew Point: -1° C
FS[18:11] Visibility: 23 miles
FS[18:11] METAR: KPRB 061616Z AUTO 30006KT 10SM SCT007 16/12 A2997 RMK AO2 T01610122KPRC 061553Z VRB05KT 10SM CLR 25/03 A3013 RMK AO2 SLP115 T02500028KPRN 061632Z AUTO 12008KT 10SM SCT009 BKN013 26/21 A2990 RMK AO2 T02610211KPRS 061635Z AUTO 00000KT 10SM CLR 28/13 A3000 RMK AO2 T02810130KPRX 061556Z AUTO 35003KT 10SM OVC025 25/22 A2978 RMK AO2 SLP092 T02500217 $
FS[18:11] View Mode: Spot Plane
FS[18:11] FS: Paused
FS[18:11] Flaps: Position 0
FS[18:11] FS: Unpaused
FS[18:11] ADF1: 284.5
FS[18:13] ADF1: 284.0
FS[18:13] Reverse Thrust Started: 3 knots
FS[18:13] Reverse Thrust Stopped: 3 knots
FS[18:13] Reverse Thrust Started: 3 knots
FS[18:13] Reverse Thrust Stopped: 0 knots
FS[18:13] Reverse Thrust Started: 7 knots
FS[18:14] Reverse Thrust Stopped: 0 knots
FS[18:14] ADF1: 284.5
FS[18:14] ADF1: 284.0
FS[18:15] Flaps: Position 1
FS[18:15] ADF1: 284.0
FS[18:16] Flaps: Position 0
FS[18:16] GS: 97 knots
FS[18:16] TAS: 95 knots
FS[18:16] IAS: 96 knots
FS[18:16] VS: 901 fpm
FS[18:16] View Mode: Spot Plane
FS[18:16] ADF1: 284.5
FS[18:16] Autopilot: Engaged
FS[18:16] AGL: 574 ft
FS[18:16] AMSL: 574 ft
FS[18:17] Light Data: Landing lights ON
FS[18:17] AGL: 1145 ft
FS[18:17] AMSL: 1145 ft
FS[18:17] ADF1: 284.0
FS[18:18] ADF1: 284.5
FS[18:19] ADF1: 284.0
FS[18:19] Transponder: 7000
FS[18:19] ADF1: 284.5
FS[18:19] Light Data: Landing lights OFF
FS[18:19] AGL: 2471 ft
FS[18:19] AMSL: 2598 ft
FS[18:20] ADF1: 284.0
FS[18:21] ADF1: 284.5
FS[18:22] ADF1: 284.0
FS[18:23] ADF1: 284.5
FS[18:23] Recovery: Flight Saved
FS[18:23] ADF1: 284.0
FS[18:24] Flaps: Position 1
FS[18:24] GS: 103 knots
FS[18:24] TAS: 103 knots
FS[18:24] IAS: 102 knots
FS[18:24] VS: -846 fpm
FS[18:24] Flaps: Position 2
FS[18:24] GS: 93 knots
FS[18:24] TAS: 94 knots
FS[18:24] IAS: 92 knots
FS[18:24] VS: -666 fpm
FS[18:24] ADF1: 284.5
FS[18:25] Flaps: Position 3
FS[18:25] GS: 79 knots
FS[18:25] TAS: 80 knots
FS[18:25] IAS: 80 knots
FS[18:25] VS: -1117 fpm
FS[18:25] ADF1: 284.0
FS[18:26] Flaps: Position 4
FS[18:26] GS: 75 knots
FS[18:26] TAS: 76 knots
FS[18:26] IAS: 77 knots
FS[18:26] VS: -513 fpm
FS[18:26] NOTE: ----- LANDED -----
FS[18:26] Landing Rate: -353.72 fpm
FS[18:26] GS: 71 knots
FS[18:26] TAS: 71 knots
FS[18:26] IAS: 72 knots
FS[18:26] VS: -350 fpm
FS[18:26] FOB: 2355 lbs
FS[18:26] Heading: 313°
FS[18:26] Pitch: 0°
FS[18:26] Bank: 0°
FS[18:26] Aircraft Weight: 11105.72 lbs
FS[18:26] Nearest Airport: KPR
FS[18:26] Distance: 0.91 miles
FS[18:26] Runway: ???
FS[18:26] Ground Surface: Water
FS[18:26] Ground Condition: Normal
FS[18:26] NOTE: Weather Report
FS[18:26] Wind Heading: 216°
FS[18:26] Wind Speed: 5 knots
FS[18:26] OAT: 3° C
FS[18:26] TAT: 4° C
FS[18:26] Precipitation: None
FS[18:26] Dew Point: -1° C
FS[18:26] Visibility: 23 miles
FS[18:26] METAR: KPRB 061616Z AUTO 30006KT 10SM SCT007 16/12 A2997 RMK AO2 T01610122KPRC 061553Z VRB05KT 10SM CLR 25/03 A3013 RMK AO2 SLP115 T02500028KPRN 061632Z AUTO 12008KT 10SM SCT009 BKN013 26/21 A2990 RMK AO2 T02610211KPRS 061635Z AUTO 00000KT 10SM CLR 28/13 A3000 RMK AO2 T02810130KPRX 061556Z AUTO 35003KT 10SM OVC025 25/22 A2978 RMK AO2 SLP092 T02500217 $
FS[18:26] View Mode: Virtual Cockpit
FS[18:26] Light Data: Landing lights ON
FS[18:26] ADF1: 284.5
FS[18:26] Flaps: Position 0
FS[18:27] ADF1: 284.5
FS[18:28] ADF1: 284.0
FS[18:28] ADF1: 284.5
FS[18:29] Reverse Thrust Started: 33 knots
FS[18:29] ADF1: 284.0
FS[18:29] Landing Gear: Extended
FS[18:30] Reverse Thrust Stopped: 0 knots
FS[18:30] ADF1: 284.5
FS[18:30] Slew Mode: Activated
FS[18:30] Landing Gear: Retracted
FS[18:30] Slew Mode: Deactivated
FS[18:31] ADF1: 284.0
FS[18:32] ADF1: 284.5
FS[18:32] Slew Mode: Activated
FS[18:32] Slew Mode: Deactivated
FS[18:32] Slew Mode: Activated
FS[18:32] Slew Mode: Deactivated
FS[18:32] ADF1: 284.0
FS[18:33] Reverse Thrust Started: 5 knots
FS[18:33] Reverse Thrust Stopped: 5 knots
FS[18:33] Gate: n/a
FS[18:33] NOTE: Flight Completed
FS[18:33] FS Aircraft: DHC-6 300 Amphib RTMM
FS[18:33] FS Model: DHC6
FS[18:33] FS Type: DeHavilland
FS[18:33] FOB: 2329 lbs
FS[18:33] Fuel Used: 262 lbs
FS[18:33] Flight Time: 00:40:18
FS[18:33] Flight Time (Dawn): 00:00:00
FS[18:33] Flight Time (Day): 00:40:18
FS[18:33] Flight Time (Dusk): 00:00:00
FS[18:33] Flight Time (Night): 00:00:00
FS[18:33] Total Landings: 4
FS[18:33] MaxSim Rate: 0x
FS[18:33] Cigar Box - 1.1.4.0
FS[18:33] ----- Flight Closed -----

Route Map